Time;durP1;ratioP1;P1;durP2;ratioP2;P2;SDS_P1;SDS_P2;PMS_P1;PMS_P2;Temp;Humidity;BMP_temperature;BMP_pressure;BME280_temperature;BME280_humidity;BME280_pressure;Samples;Min_cycle;Max_cycle;Signal;HPM_P1;HPM_P2
2022/04/20 00:02:10;;;;;;;9.97;4.43;;;;;;;-145.18;100.00;60484.78;5012605;28;20525;-69
2022/04/20 00:04:35;;;;;;;8.67;4.63;;;;;;;-145.18;100.00;60484.78;5009368;28;21305;-69
2022/04/20 00:07:01;;;;;;;8.90;3.80;;;;;;;-145.18;100.00;60484.78;5012078;28;20033;-69
2022/04/20 00:09:27;;;;;;;7.37;3.97;;;;;;;-145.18;100.00;60484.78;5012144;28;20116;-69
2022/04/20 00:11:52;;;;;;;9.23;3.90;;;;;;;-145.18;100.00;60484.78;5018928;28;20043;-69
2022/04/20 00:14:17;;;;;;;7.77;4.07;;;;;;;-145.18;100.00;60484.78;5009806;28;20129;-69
2022/04/20 00:16:43;;;;;;;8.10;3.60;;;;;;;-145.18;100.00;60484.78;5008774;28;20084;-69
2022/04/20 00:19:08;;;;;;;10.37;4.23;;;;;;;-145.18;100.00;60484.78;5009820;28;20029;-69
2022/04/20 00:21:34;;;;;;;8.40;4.63;;;;;;;-145.18;100.00;60484.78;5012917;28;20039;-69
2022/04/20 00:23:59;;;;;;;9.63;4.50;;;;;;;-145.18;100.00;60484.78;5009358;28;20037;-69
2022/04/20 00:26:24;;;;;;;7.70;4.30;;;;;;;-145.18;100.00;60484.78;5009581;28;20037;-69
2022/04/20 00:28:50;;;;;;;10.20;3.97;;;;;;;-145.18;100.00;60484.78;5008417;28;20593;-69
2022/04/20 00:31:15;;;;;;;9.10;4.03;;;;;;;-145.18;100.00;60484.78;5007967;28;20041;-69
2022/04/20 00:33:40;;;;;;;9.77;4.10;;;;;;;-145.18;100.00;60484.78;5014602;28;20299;-69
2022/04/20 00:36:06;;;;;;;9.10;4.03;;;;;;;-145.18;100.00;60484.78;5009610;28;20560;-69
2022/04/20 00:38:31;;;;;;;8.20;4.07;;;;;;;-145.18;100.00;60484.78;5023086;28;20041;-69
2022/04/20 00:40:57;;;;;;;7.83;4.43;;;;;;;-145.18;100.00;60484.78;5019682;28;20068;-69
2022/04/20 00:43:22;;;;;;;7.97;3.73;;;;;;;-145.18;100.00;60484.78;5015222;28;20446;-69
2022/04/20 00:45:49;;;;;;;10.63;4.17;;;;;;;-145.18;100.00;60484.78;5021286;28;20034;-68
2022/04/20 00:48:15;;;;;;;8.70;4.30;;;;;;;-145.18;100.00;60484.78;5028039;28;20053;-69
2022/04/20 00:50:44;;;;;;;11.80;3.93;;;;;;;-145.18;100.00;60484.78;5015384;28;20382;-69
2022/04/20 00:53:10;;;;;;;8.57;3.70;;;;;;;-145.18;100.00;60484.78;5024591;28;20443;-69
2022/04/20 00:55:35;;;;;;;9.30;4.20;;;;;;;-145.18;100.00;60484.78;5023315;28;20116;-69
2022/04/20 00:58:00;;;;;;;7.90;4.10;;;;;;;-145.18;100.00;60484.78;5022565;28;20061;-69
2022/04/20 01:00:27;;;;;;;8.30;4.23;;;;;;;-145.18;100.00;60484.78;5026764;28;20041;-69
2022/04/20 01:02:53;;;;;;;8.73;4.37;;;;;;;-145.18;100.00;60484.78;5024075;28;20037;-69
2022/04/20 01:05:21;;;;;;;11.93;4.50;;;;;;;-145.18;100.00;60484.78;5026154;28;20033;-69
2022/04/20 01:07:47;;;;;;;9.57;4.33;;;;;;;-145.18;100.00;60484.78;5022673;28;20034;-69
2022/04/20 01:10:12;;;;;;;7.57;3.80;;;;;;;-145.18;100.00;60484.78;5025319;28;20385;-69
2022/04/20 01:12:39;;;;;;;8.40;4.23;;;;;;;-145.18;100.00;60484.78;5026616;28;20037;-69
2022/04/20 01:15:05;;;;;;;8.53;4.07;;;;;;;-145.18;100.00;60484.78;5028923;28;20025;-69
2022/04/20 01:17:30;;;;;;;8.77;4.20;;;;;;;-145.18;100.00;60484.78;5023055;28;20042;-69
2022/04/20 01:19:56;;;;;;;7.13;4.07;;;;;;;-145.18;100.00;60484.78;5024423;28;20029;-69
2022/04/20 01:22:22;;;;;;;12.47;4.40;;;;;;;-145.18;100.00;60484.78;5021601;28;20175;-69
2022/04/20 01:24:47;;;;;;;10.97;5.13;;;;;;;-145.18;100.00;60484.78;5027735;28;20041;-69
2022/04/20 01:27:12;;;;;;;7.57;4.40;;;;;;;-145.18;100.00;60484.78;5020038;28;20030;-69
2022/04/20 01:29:39;;;;;;;9.57;4.43;;;;;;;-145.18;100.00;60484.78;5021416;28;20049;-69
2022/04/20 01:32:04;;;;;;;9.97;4.40;;;;;;;-145.18;100.00;60484.78;5026500;28;20457;-69
2022/04/20 01:34:30;;;;;;;9.47;4.90;;;;;;;-145.18;100.00;60484.78;5017842;28;20033;-69
2022/04/20 01:36:55;;;;;;;7.03;3.93;;;;;;;-145.18;100.00;60484.78;5015724;28;20022;-69
2022/04/20 01:39:21;;;;;;;8.63;4.17;;;;;;;-145.18;100.00;60484.78;5022347;28;20041;-70
2022/04/20 01:41:46;;;;;;;8.57;4.60;;;;;;;-145.18;100.00;60484.78;5026459;28;20029;-69
2022/04/20 01:44:11;;;;;;;8.43;4.10;;;;;;;-145.18;100.00;60484.78;5023791;28;20029;-69
2022/04/20 01:46:37;;;;;;;10.07;4.57;;;;;;;-145.18;100.00;60484.78;5026078;28;20123;-69
2022/04/20 01:49:03;;;;;;;7.73;4.53;;;;;;;-145.18;100.00;60484.78;5016816;28;20021;-69
2022/04/20 01:51:47;;;;;;;9.27;4.40;;;;;;;-145.18;100.00;60484.78;5018562;28;20394;-69
2022/04/20 01:54:13;;;;;;;10.97;4.50;;;;;;;-145.18;100.00;60484.78;5023071;28;20528;-69
2022/04/20 01:56:39;;;;;;;12.70;5.17;;;;;;;-145.18;100.00;60484.78;5010969;28;20080;-69
2022/04/20 01:59:04;;;;;;;9.00;4.53;;;;;;;-145.18;100.00;60484.78;5022677;28;20029;-69
2022/04/20 02:04:13;;;;;;;8.07;4.73;;;;;;;-145.18;100.00;60484.78;5012327;28;20080;-69
2022/04/20 02:06:39;;;;;;;9.50;4.43;;;;;;;-145.18;100.00;60484.78;4993595;28;20033;-69
2022/04/20 02:09:04;;;;;;;7.23;4.37;;;;;;;-145.18;100.00;60484.78;5011340;28;20103;-69
2022/04/20 02:11:30;;;;;;;9.30;4.50;;;;;;;-145.18;100.00;60484.78;5011030;28;20033;-69
2022/04/20 02:13:56;;;;;;;7.37;4.60;;;;;;;-145.18;100.00;60484.78;5011421;28;20037;-69
2022/04/20 02:16:21;;;;;;;8.93;4.97;;;;;;;-145.18;100.00;60484.78;5017477;28;20033;-70
2022/04/20 02:18:47;;;;;;;9.30;4.87;;;;;;;-145.18;100.00;60484.78;5015024;28;22177;-70
2022/04/20 02:21:12;;;;;;;8.50;4.73;;;;;;;-145.18;100.00;60484.78;5013098;28;20026;-70
2022/04/20 02:23:38;;;;;;;8.83;4.77;;;;;;;-145.18;100.00;60484.78;5014416;28;20037;-69
2022/04/20 02:26:03;;;;;;;10.17;4.83;;;;;;;-145.18;100.00;60484.78;5018436;28;20398;-70
2022/04/20 02:28:28;;;;;;;9.00;4.50;;;;;;;-145.18;100.00;60484.78;5028796;28;20044;-70
2022/04/20 02:30:54;;;;;;;10.83;4.93;;;;;;;-145.18;100.00;60484.78;5029617;28;20029;-70
2022/04/20 02:33:19;;;;;;;8.47;4.47;;;;;;;-145.18;100.00;60484.78;5030136;28;20497;-70
2022/04/20 02:35:45;;;;;;;10.57;4.87;;;;;;;-145.18;100.00;60484.78;5027908;28;20422;-70
2022/04/20 02:38:11;;;;;;;8.27;4.83;;;;;;;-145.18;100.00;60484.78;5030096;28;20036;-70
2022/04/20 02:40:41;;;;;;;8.63;4.50;;;;;;;-145.18;100.00;60484.78;5028851;28;20473;-70
2022/04/20 02:43:06;;;;;;;8.20;4.70;;;;;;;-145.18;100.00;60484.78;5026753;28;20033;-70
2022/04/20 02:45:32;;;;;;;8.27;4.70;;;;;;;-145.18;100.00;60484.78;5028281;28;20100;-70
2022/04/20 02:47:57;;;;;;;13.80;4.73;;;;;;;-145.18;100.00;60484.78;5031072;28;20041;-70
2022/04/20 02:50:23;;;;;;;9.83;4.97;;;;;;;-145.18;100.00;60484.78;5031178;28;20030;-69
2022/04/20 02:52:48;;;;;;;10.97;5.00;;;;;;;-145.18;100.00;60484.78;5029482;28;20121;-70
2022/04/20 02:55:14;;;;;;;11.63;4.97;;;;;;;-145.18;100.00;60484.78;5029246;28;20060;-70
2022/04/20 02:57:39;;;;;;;9.70;4.93;;;;;;;-145.18;100.00;60484.78;5029356;28;20492;-70
2022/04/20 03:00:06;;;;;;;12.27;5.27;;;;;;;-145.18;100.00;60484.78;5024044;28;20029;-70
2022/04/20 03:02:31;;;;;;;9.07;4.50;;;;;;;-145.18;100.00;60484.78;5029744;28;20591;-70
2022/04/20 03:04:57;;;;;;;10.17;4.73;;;;;;;-145.18;100.00;60484.78;5026244;28;20116;-69
2022/04/20 03:07:22;;;;;;;10.40;5.17;;;;;;;-145.18;100.00;60484.78;5027396;28;20038;-70
2022/04/20 03:09:48;;;;;;;8.60;4.90;;;;;;;-145.18;100.00;60484.78;5024992;28;20056;-70
2022/04/20 03:12:13;;;;;;;10.97;5.60;;;;;;;-145.18;100.00;60484.78;5029440;28;20487;-70
2022/04/20 03:14:39;;;;;;;9.77;5.10;;;;;;;-145.18;100.00;60484.78;5029896;28;20035;-69
2022/04/20 03:17:04;;;;;;;10.30;5.13;;;;;;;-145.18;100.00;60484.78;5026930;28;20572;-70
2022/04/20 03:19:30;;;;;;;12.50;5.03;;;;;;;-145.18;100.00;60484.78;5030041;28;20037;-70
2022/04/20 03:21:55;;;;;;;11.13;5.60;;;;;;;-145.18;100.00;60484.78;5031015;28;20036;-70
2022/04/20 03:24:21;;;;;;;9.67;5.07;;;;;;;-145.18;100.00;60484.78;5023245;28;20059;-70
2022/04/20 03:26:46;;;;;;;12.90;5.20;;;;;;;-145.18;100.00;60484.78;5024200;28;20068;-70
2022/04/20 03:29:11;;;;;;;10.07;5.57;;;;;;;-145.18;100.00;60484.78;5021346;28;20029;-69
2022/04/20 03:31:38;;;;;;;11.60;6.20;;;;;;;-145.18;100.00;60484.78;5025056;28;20180;-70
2022/04/20 03:34:04;;;;;;;8.93;5.43;;;;;;;-145.18;100.00;60484.78;5024208;28;20061;-70
2022/04/20 03:36:31;;;;;;;9.90;5.87;;;;;;;-145.18;100.00;60484.78;5022677;28;20041;-70
2022/04/20 03:38:56;;;;;;;12.27;5.90;;;;;;;-145.18;100.00;60484.78;5021810;28;20480;-69
2022/04/20 03:41:22;;;;;;;19.10;5.97;;;;;;;-145.18;100.00;60484.78;5027941;28;20034;-70
2022/04/20 03:43:48;;;;;;;13.83;6.33;;;;;;;-145.18;100.00;60484.78;5026581;28;20523;-69
2022/04/20 03:46:13;;;;;;;13.70;6.27;;;;;;;-145.18;100.00;60484.78;5023788;28;20037;-69
2022/04/20 03:48:40;;;;;;;15.10;6.80;;;;;;;-145.18;100.00;60484.78;5026208;28;20029;-70
2022/04/20 03:51:05;;;;;;;18.07;7.03;;;;;;;-145.18;100.00;60484.78;5026722;28;20513;-70
2022/04/20 03:53:31;;;;;;;11.87;6.67;;;;;;;-145.18;100.00;60484.78;5028993;28;20121;-71
2022/04/20 03:55:56;;;;;;;13.97;6.37;;;;;;;-145.18;100.00;60484.78;5024332;28;20397;-70
2022/04/20 03:58:22;;;;;;;9.97;6.27;;;;;;;-145.18;100.00;60484.78;5027046;28;20486;-70
2022/04/20 04:00:47;;;;;;;11.90;6.27;;;;;;;-145.18;100.00;60484.78;5028112;28;20030;-70
2022/04/20 04:03:12;;;;;;;14.00;6.80;;;;;;;-145.18;100.00;60484.78;5028644;28;20033;-70
2022/04/20 04:05:38;;;;;;;11.07;6.10;;;;;;;-145.18;100.00;60484.78;5023290;28;20437;-71
2022/04/20 04:08:04;;;;;;;12.83;6.70;;;;;;;-145.18;100.00;60484.78;5029932;28;20032;-70
2022/04/20 04:10:30;;;;;;;12.80;6.57;;;;;;;-145.18;100.00;60484.78;5025955;28;20107;-71
2022/04/20 04:12:55;;;;;;;12.57;6.23;;;;;;;-145.18;100.00;60484.78;5026909;28;20437;-70
2022/04/20 04:15:21;;;;;;;11.73;6.80;;;;;;;-145.18;100.00;60484.78;5026842;28;20060;-70
2022/04/20 04:17:48;;;;;;;12.27;6.90;;;;;;;-145.18;100.00;60484.78;5026731;28;20462;-70
2022/04/20 04:20:14;;;;;;;14.27;7.17;;;;;;;-145.18;100.00;60484.78;5029808;28;20029;-70
2022/04/20 04:22:39;;;;;;;13.37;6.53;;;;;;;-145.18;100.00;60484.78;5027360;28;20045;-70
2022/04/20 04:25:06;;;;;;;12.00;6.70;;;;;;;-145.18;100.00;60484.78;5026607;28;20120;-70
2022/04/20 04:27:32;;;;;;;14.90;7.10;;;;;;;-145.18;100.00;60484.78;5028320;28;20033;-70
2022/04/20 04:29:58;;;;;;;11.47;6.73;;;;;;;-145.18;100.00;60484.78;5025372;28;20499;-70
2022/04/20 04:32:23;;;;;;;13.77;7.27;;;;;;;-145.18;100.00;60484.78;5023026;28;20032;-70
2022/04/20 04:34:48;;;;;;;15.13;6.70;;;;;;;-145.18;100.00;60484.78;5023060;28;20064;-70
2022/04/20 04:37:14;;;;;;;11.73;7.07;;;;;;;-145.18;100.00;60484.78;5023715;28;20053;-71
2022/04/20 04:39:40;;;;;;;21.03;7.37;;;;;;;-145.18;100.00;60484.78;5020578;28;20535;-70
2022/04/20 04:42:06;;;;;;;12.00;7.40;;;;;;;-145.18;100.00;60484.78;5023743;28;20061;-70
2022/04/20 04:44:32;;;;;;;13.93;7.97;;;;;;;-145.18;100.00;60484.78;5021795;28;20337;-70
2022/04/20 04:49:42;;;;;;;17.53;7.67;;;;;;;-145.18;100.00;60484.78;5024107;28;20512;-70
2022/04/20 04:52:11;;;;;;;15.67;8.70;;;;;;;-145.18;100.00;60484.78;5023301;28;20025;-70
2022/04/20 04:54:38;;;;;;;16.10;8.30;;;;;;;-145.18;100.00;60484.78;5020148;28;20450;-69
2022/04/20 04:57:05;;;;;;;17.40;9.33;;;;;;;-145.18;100.00;60484.78;5005747;28;20025;-70
2022/04/20 04:59:30;;;;;;;15.53;7.40;;;;;;;-145.18;100.00;60484.78;5024625;28;20064;-70
2022/04/20 05:01:56;;;;;;;16.43;8.00;;;;;;;-145.18;100.00;60484.78;5026523;28;20493;-71
2022/04/20 05:04:21;;;;;;;13.50;7.13;;;;;;;-145.18;100.00;60484.78;5027649;28;20029;-70
2022/04/20 05:06:47;;;;;;;15.27;7.17;;;;;;;-145.18;100.00;60484.78;5027423;28;20137;-70
2022/04/20 05:09:12;;;;;;;13.33;6.60;;;;;;;-145.18;100.00;60484.78;5021274;28;20060;-70
2022/04/20 05:11:38;;;;;;;12.50;6.37;;;;;;;-145.18;100.00;60484.78;5027752;28;20044;-70
2022/04/20 05:14:04;;;;;;;13.43;5.97;;;;;;;-145.18;100.00;60484.78;5020426;28;20030;-70
2022/04/20 05:16:29;;;;;;;10.83;5.60;;;;;;;-145.18;100.00;60484.78;5005976;28;20033;-70
2022/04/20 05:18:54;;;;;;;11.37;5.67;;;;;;;-145.18;100.00;60484.78;5025039;28;20029;-70
2022/04/20 05:21:20;;;;;;;9.57;5.40;;;;;;;-145.18;100.00;60484.78;5025292;28;20412;-70
2022/04/20 05:23:45;;;;;;;10.67;5.77;;;;;;;-145.18;100.00;60484.78;5019892;28;20029;-70
2022/04/20 05:26:11;;;;;;;10.50;5.67;;;;;;;-145.18;100.00;60484.78;5029693;28;20029;-70
2022/04/20 05:28:36;;;;;;;10.40;5.33;;;;;;;-145.18;100.00;60484.78;5028064;28;20461;-69
2022/04/20 05:31:01;;;;;;;10.33;5.23;;;;;;;-145.18;100.00;60484.78;5030201;28;20404;-70
2022/04/20 05:33:27;;;;;;;11.83;6.00;;;;;;;-145.18;100.00;60484.78;5024993;28;20049;-70
2022/04/20 05:35:52;;;;;;;12.10;5.67;;;;;;;-145.18;100.00;60484.78;5023569;28;20029;-70
2022/04/20 05:43:49;;;;;;;11.80;5.83;;;;;;;-145.18;100.00;60484.78;5027324;28;20091;-70
2022/04/20 05:46:14;;;;;;;15.50;6.10;;;;;;;-145.18;100.00;60484.78;5027414;28;20033;-70
2022/04/20 05:48:40;;;;;;;9.10;5.47;;;;;;;-145.18;100.00;60484.78;5027998;28;20032;-70
2022/04/20 05:51:07;;;;;;;9.97;5.10;;;;;;;-145.18;100.00;60484.78;5026427;28;20057;-70
2022/04/20 05:53:32;;;;;;;10.60;5.43;;;;;;;-145.18;100.00;60484.78;5032340;28;20032;-70
2022/04/20 05:55:58;;;;;;;11.27;5.37;;;;;;;-145.18;100.00;60484.78;5030310;28;20041;-70
2022/04/20 05:58:23;;;;;;;11.07;5.77;;;;;;;-145.18;100.00;60484.78;5028313;28;20040;-69
2022/04/20 06:00:48;;;;;;;14.20;5.40;;;;;;;-145.18;100.00;60484.78;5020133;28;20052;-70
2022/04/20 06:03:14;;;;;;;10.60;5.00;;;;;;;-145.18;100.00;60484.78;5028986;28;20025;-70
2022/04/20 06:05:41;;;;;;;9.17;4.90;;;;;;;-145.18;100.00;60484.78;5009824;28;20470;-70
2022/04/20 06:08:07;;;;;;;9.50;5.30;;;;;;;-145.18;100.00;60484.78;5028000;28;20390;-69
2022/04/20 06:10:33;;;;;;;9.20;4.93;;;;;;;-145.18;100.00;60484.78;5028707;28;20041;-70
2022/04/20 06:12:59;;;;;;;9.60;4.90;;;;;;;-145.18;100.00;60484.78;5019695;28;20040;-70
2022/04/20 06:15:24;;;;;;;13.90;4.90;;;;;;;-145.18;100.00;60484.78;5026097;28;20367;-70
2022/04/20 06:17:50;;;;;;;10.17;4.97;;;;;;;-145.18;100.00;60484.78;5029143;28;20068;-70
2022/04/20 06:20:15;;;;;;;7.23;4.53;;;;;;;-145.18;100.00;60484.78;5020763;28;20026;-70
2022/04/20 06:22:41;;;;;;;10.63;5.00;;;;;;;-145.18;100.00;60484.78;5015723;28;20049;-70
2022/04/20 06:25:06;;;;;;;16.50;4.53;;;;;;;-145.18;100.00;60484.78;5021710;28;20033;-71
2022/04/20 06:27:32;;;;;;;15.37;4.60;;;;;;;-145.18;100.00;60484.78;5029636;28;20029;-71
2022/04/20 06:29:58;;;;;;;8.43;4.67;;;;;;;-145.18;100.00;60484.78;5021614;28;20042;-71
2022/04/20 06:32:24;;;;;;;9.07;4.90;;;;;;;-145.18;100.00;60484.78;5020155;28;20357;-71
2022/04/20 06:34:51;;;;;;;9.20;4.47;;;;;;;-145.18;100.00;60484.78;5029355;28;20032;-71
2022/04/20 06:37:18;;;;;;;9.40;4.67;;;;;;;-145.18;100.00;60484.78;5032186;28;20025;-71
2022/04/20 06:39:44;;;;;;;9.10;4.37;;;;;;;-145.18;100.00;60484.78;5024629;28;20049;-71
2022/04/20 06:42:09;;;;;;;8.15;4.13;;;;;;;-145.18;100.00;60484.78;5029579;28;20696;-71
2022/04/20 06:44:34;;;;;;;10.25;4.50;;;;;;;-145.18;100.00;60484.78;5033597;28;20032;-71
2022/04/20 06:47:00;;;;;;;8.50;4.00;;;;;;;-145.18;100.00;60484.78;5031762;28;20040;-70
2022/04/20 06:49:25;;;;;;;7.30;3.90;;;;;;;-145.18;100.00;60484.78;5024405;28;20536;-71
2022/04/20 07:00:07;;;;;;;7.73;4.20;;;;;;;-145.18;100.00;60484.78;5025287;28;20087;-70
2022/04/20 07:02:33;;;;;;;8.05;3.85;;;;;;;-145.18;100.00;60484.78;5033470;28;20032;-71
2022/04/20 07:04:58;;;;;;;7.20;3.83;;;;;;;-145.18;100.00;60484.78;5025702;28;20122;-71
2022/04/20 07:07:24;;;;;;;7.57;3.70;;;;;;;-145.18;100.00;60484.78;5030273;28;20068;-70
2022/04/20 07:09:49;;;;;;;8.02;3.80;;;;;;;-145.18;100.00;60484.78;5021143;28;20026;-70
2022/04/20 07:12:15;;;;;;;8.43;3.33;;;;;;;-145.18;100.00;60484.78;5025479;28;20025;-70
2022/04/20 07:14:40;;;;;;;7.18;3.60;;;;;;;-145.18;100.00;60484.78;5031553;28;20039;-70
2022/04/20 07:17:07;;;;;;;6.97;3.30;;;;;;;-145.18;100.00;60484.78;5031510;28;20474;-70
2022/04/20 07:19:34;;;;;;;8.02;3.88;;;;;;;-145.18;100.00;60484.78;5031102;28;20072;-70
2022/04/20 07:21:59;;;;;;;7.53;3.30;;;;;;;-145.18;100.00;60484.78;5030756;28;20091;-70
2022/04/20 07:24:25;;;;;;;8.07;3.97;;;;;;;-145.18;100.00;60484.78;5024734;28;20034;-71
2022/04/20 07:26:50;;;;;;;7.00;3.80;;;;;;;-145.18;100.00;60484.78;5025246;28;20025;-71
2022/04/20 07:29:15;;;;;;;7.47;3.38;;;;;;;-145.18;100.00;60484.78;5019964;28;20057;-70
2022/04/20 07:31:41;;;;;;;6.60;3.70;;;;;;;-145.18;100.00;60484.78;5029004;28;20033;-71
2022/04/20 07:34:06;;;;;;;6.30;3.75;;;;;;;-145.18;100.00;60484.78;5023713;28;20030;-71
2022/04/20 07:36:32;;;;;;;6.72;3.40;;;;;;;-145.18;100.00;60484.78;5027397;28;20022;-71
2022/04/20 07:38:57;;;;;;;8.00;3.75;;;;;;;-145.18;100.00;60484.78;5025308;28;20029;-71
2022/04/20 07:41:23;;;;;;;6.80;3.50;;;;;;;-145.18;100.00;60484.78;5026114;28;20052;-71
2022/04/20 07:43:49;;;;;;;7.30;3.70;;;;;;;-145.18;100.00;60484.78;5028143;28;20041;-72
2022/04/20 07:46:17;;;;;;;6.85;3.70;;;;;;;-145.18;100.00;60484.78;5028390;28;20404;-71
2022/04/20 07:48:43;;;;;;;22.65;4.63;;;;;;;-145.18;100.00;60484.78;5024156;28;20025;-71
2022/04/20 07:51:08;;;;;;;5.30;3.25;;;;;;;-145.18;100.00;60484.78;5026658;28;20032;-71
2022/04/20 07:53:34;;;;;;;6.47;3.50;;;;;;;-145.18;100.00;60484.78;5028421;28;20038;-71
2022/04/20 07:56:00;;;;;;;6.75;3.33;;;;;;;-145.18;100.00;60484.78;5028454;28;20037;-72
2022/04/20 07:58:25;;;;;;;8.18;3.78;;;;;;;-145.18;100.00;60484.78;5030184;28;20791;-70
2022/04/20 08:00:53;;;;;;;5.75;3.20;;;;;;;-145.18;100.00;60484.78;5025557;28;20485;-71
2022/04/20 08:03:19;;;;;;;6.57;3.40;;;;;;;-145.18;100.00;60484.78;5028527;28;20021;-70
2022/04/20 08:05:52;;;;;;;7.97;3.13;;;;;;;-145.18;100.00;60484.78;5025595;28;20033;-70
2022/04/20 08:08:19;;;;;;;6.00;3.05;;;;;;;-145.18;100.00;60484.78;5028172;28;20037;-70
2022/04/20 08:10:44;;;;;;;6.15;2.95;;;;;;;-145.18;100.00;60484.78;5023647;28;20032;-72
2022/04/20 08:15:57;;;;;;;5.50;3.45;;;;;;;-145.18;100.00;60484.78;5026821;28;20092;-69
2022/04/20 08:18:24;;;;;;;6.05;3.13;;;;;;;-145.18;100.00;60484.78;5029267;28;20847;-70
2022/04/20 08:20:49;;;;;;;5.85;3.00;;;;;;;-145.18;100.00;60484.78;5024625;28;20469;-70
2022/04/20 08:23:15;;;;;;;5.68;2.80;;;;;;;-145.18;100.00;60484.78;5028536;28;20076;-70
2022/04/20 08:25:42;;;;;;;7.60;2.80;;;;;;;-145.18;100.00;60484.78;5023986;28;20389;-70
2022/04/20 08:28:08;;;;;;;5.43;2.90;;;;;;;-145.18;100.00;60484.78;5025734;28;20033;-70
2022/04/20 08:30:35;;;;;;;4.95;2.60;;;;;;;-145.18;100.00;60484.78;5026201;28;20025;-71
2022/04/20 08:33:01;;;;;;;6.88;3.00;;;;;;;-145.18;100.00;60484.78;5026746;28;20129;-70
2022/04/20 08:35:26;;;;;;;5.55;3.00;;;;;;;-145.18;100.00;60484.78;5028655;28;20120;-70
2022/04/20 08:37:52;;;;;;;4.90;2.80;;;;;;;-145.18;100.00;60484.78;5028602;28;20034;-70
2022/04/20 08:40:17;;;;;;;5.20;2.28;;;;;;;-145.18;100.00;60484.78;5028945;28;20041;-70
2022/04/20 08:42:43;;;;;;;5.80;2.70;;;;;;;-145.18;100.00;60484.78;5030334;28;20108;-70
2022/04/20 08:45:10;;;;;;;6.13;2.83;;;;;;;-145.18;100.00;60484.78;5028608;28;20574;-70
2022/04/20 08:47:37;;;;;;;5.88;2.60;;;;;;;-145.18;100.00;60484.78;5028140;28;20456;-70
2022/04/20 08:50:08;;;;;;;3.88;2.08;;;;;;;-145.18;100.00;60484.78;5019526;28;20536;-71
2022/04/20 08:52:38;;;;;;;7.65;2.75;;;;;;;-145.18;100.00;60484.78;5013823;28;20083;-71
2022/04/20 08:55:12;;;;;;;5.90;2.58;;;;;;;-145.18;100.00;60484.78;5027235;28;20398;-71
2022/04/20 08:57:38;;;;;;;4.95;2.65;;;;;;;-145.18;100.00;60484.78;5022252;28;20100;-71
2022/04/20 09:00:10;;;;;;;7.60;3.00;;;;;;;-145.18;100.00;60484.78;5019117;28;20509;-71
2022/04/20 09:02:36;;;;;;;8.27;3.30;;;;;;;-145.18;100.00;60484.78;5030549;28;20037;-70
2022/04/20 09:05:03;;;;;;;7.45;2.80;;;;;;;-145.18;100.00;60484.78;5021063;28;20486;-71
2022/04/20 09:07:31;;;;;;;5.18;2.55;;;;;;;-145.18;100.00;60484.78;5033664;28;20021;-71
2022/04/20 09:09:57;;;;;;;5.57;2.85;;;;;;;-145.18;100.00;60484.78;5034035;28;20112;-71
2022/04/20 09:12:23;;;;;;;6.10;2.53;;;;;;;-145.18;100.00;60484.78;5032421;28;20117;-71
2022/04/20 09:14:50;;;;;;;5.38;2.72;;;;;;;-145.18;100.00;60484.78;5034113;28;20479;-71
2022/04/20 09:17:19;;;;;;;5.82;3.03;;;;;;;-145.18;100.00;60484.78;5033111;28;20017;-71
2022/04/20 09:19:46;;;;;;;5.85;3.25;;;;;;;-145.18;100.00;60484.78;5024697;28;20025;-71
2022/04/20 09:22:29;;;;;;;7.10;2.80;;;;;;;-145.18;100.00;60484.78;5019325;28;20029;-71
2022/04/20 09:25:16;;;;;;;6.03;3.00;;;;;;;-145.18;100.00;60484.78;5029760;28;20033;-70
2022/04/20 09:27:42;;;;;;;6.20;3.05;;;;;;;-145.18;100.00;60484.78;5025538;28;20033;-70
2022/04/20 09:30:16;;;;;;;5.97;2.92;;;;;;;-145.18;100.00;60484.78;5032197;28;20059;-70
2022/04/20 09:32:45;;;;;;;5.75;2.80;;;;;;;-145.18;100.00;60484.78;5030036;28;20056;-71
2022/04/20 09:35:13;;;;;;;5.13;2.90;;;;;;;-145.18;100.00;60484.78;5041676;28;20044;-71
2022/04/20 09:37:40;;;;;;;5.72;3.20;;;;;;;-145.18;100.00;60484.78;5029223;28;20029;-70
2022/04/20 09:40:11;;;;;;;5.90;3.30;;;;;;;-145.18;100.00;60484.78;5023678;28;20112;-71
2022/04/20 09:42:38;;;;;;;5.82;3.55;;;;;;;-145.18;100.00;60484.78;5033280;28;20022;-70
2022/04/20 09:45:06;;;;;;;6.45;3.50;;;;;;;-145.18;100.00;60484.78;5021549;28;20041;-71
2022/04/20 09:50:23;;;;;;;8.10;3.05;;;;;;;-145.18;100.00;60484.78;5019438;28;20095;-71
2022/04/20 09:52:49;;;;;;;5.28;2.67;;;;;;;-145.18;100.00;60484.78;5027920;28;20053;-71
2022/04/20 09:55:35;;;;;;;5.03;2.80;;;;;;;-145.18;100.00;60484.78;5020184;28;20056;-71
2022/04/20 09:58:13;;;;;;;7.93;2.95;;;;;;;-145.18;100.00;60484.78;5021748;28;20473;-71
2022/04/20 10:00:41;;;;;;;5.78;2.90;;;;;;;-145.18;100.00;60484.78;5009759;28;20379;-71
2022/04/20 10:03:07;;;;;;;7.97;3.17;;;;;;;-145.18;100.00;60484.78;5031785;28;20140;-71
2022/04/20 10:05:33;;;;;;;6.53;3.08;;;;;;;-145.18;100.00;60484.78;5030975;28;20104;-71
2022/04/20 10:07:59;;;;;;;8.95;3.50;;;;;;;-145.18;100.00;60484.78;5028339;28;21991;-71
2022/04/20 10:10:27;;;;;;;7.65;3.30;;;;;;;-145.18;100.00;60484.78;5009769;28;20036;-70
2022/04/20 10:12:54;;;;;;;6.28;3.45;;;;;;;-145.18;100.00;60484.78;5019919;28;20030;-71
2022/04/20 10:18:12;;;;;;;8.70;3.40;;;;;;;-145.18;100.00;60484.78;5016318;28;20105;-70
2022/04/20 10:20:42;;;;;;;8.80;3.38;;;;;;;-145.18;100.00;60484.78;5028425;28;20071;-70
2022/04/20 10:23:08;;;;;;;7.38;3.33;;;;;;;-145.18;100.00;60484.78;5030262;28;20100;-70
2022/04/20 10:25:33;;;;;;;7.78;3.90;;;;;;;-145.18;100.00;60484.78;5031886;28;20040;-70
2022/04/20 10:27:58;;;;;;;6.22;3.60;;;;;;;-145.18;100.00;60484.78;5030733;28;20029;-70
2022/04/20 10:30:30;;;;;;;10.73;3.55;;;;;;;-145.18;100.00;60484.78;5029919;28;20063;-71
2022/04/20 10:33:07;;;;;;;9.93;3.75;;;;;;;-145.18;100.00;60484.78;5031058;28;20180;-71
2022/04/20 10:35:57;;;;;;;6.15;3.38;;;;;;;-145.18;100.00;60484.78;5027263;28;20037;-70
2022/04/20 10:38:25;;;;;;;5.90;3.90;;;;;;;-145.18;100.00;60484.78;5030008;28;20048;-70
2022/04/20 10:40:59;;;;;;;7.88;4.47;;;;;;;-145.18;100.00;60484.78;5024766;28;20541;-70
2022/04/20 10:43:26;;;;;;;7.63;4.30;;;;;;;-145.18;100.00;60484.78;5030769;28;20524;-70
2022/04/20 10:46:20;;;;;;;8.80;4.05;;;;;;;-145.18;100.00;60484.78;5013529;28;20026;-70
2022/04/20 10:49:02;;;;;;;6.13;4.05;;;;;;;-145.18;100.00;60484.78;5025222;28;20021;-70
2022/04/20 10:51:30;;;;;;;5.93;3.83;;;;;;;-145.18;100.00;60484.78;5023560;28;20029;-70
2022/04/20 10:54:24;;;;;;;12.50;4.22;;;;;;;-145.18;100.00;60484.78;5030134;28;20083;-70
2022/04/20 10:57:09;;;;;;;7.80;4.45;;;;;;;-145.18;100.00;60484.78;5030174;28;20069;-70
2022/04/20 10:59:35;;;;;;;7.22;3.83;;;;;;;-145.18;100.00;60484.78;5025038;28;20041;-70
2022/04/20 11:02:06;;;;;;;8.00;3.47;;;;;;;-145.18;100.00;60484.78;5032592;28;20064;-70
2022/04/20 11:04:42;;;;;;;7.30;4.05;;;;;;;-145.18;100.00;60484.78;5023897;28;20037;-70
2022/04/20 11:07:07;;;;;;;8.07;4.10;;;;;;;-145.18;100.00;60484.78;5025270;28;20037;-69
2022/04/20 11:09:42;;;;;;;6.70;3.30;;;;;;;-145.18;100.00;60484.78;5031863;28;20037;-69
2022/04/20 11:21:03;;;;;;;6.28;2.63;;;;;;;-145.18;100.00;60484.78;5029884;28;20827;-70
2022/04/20 11:23:53;;;;;;;6.20;3.20;;;;;;;-145.18;100.00;60484.78;5030339;28;20095;-69
2022/04/20 11:26:28;;;;;;;6.63;3.22;;;;;;;-145.18;100.00;60484.78;5029911;28;20373;-69
2022/04/20 11:28:55;;;;;;;5.55;3.22;;;;;;;-145.18;100.00;60484.78;5026911;28;20029;-69
2022/04/20 11:31:22;;;;;;;7.07;3.67;;;;;;;-145.18;100.00;60484.78;5030076;28;20523;-69
2022/04/20 11:33:47;;;;;;;8.38;3.10;;;;;;;-145.18;100.00;60484.78;5028839;28;20021;-69
2022/04/20 11:36:14;;;;;;;4.93;2.25;;;;;;;-145.18;100.00;60484.78;5029888;28;20099;-69
2022/04/20 11:38:41;;;;;;;5.32;2.75;;;;;;;-145.18;100.00;60484.78;5028068;28;20745;-69
2022/04/20 11:41:09;;;;;;;5.70;3.13;;;;;;;-145.18;100.00;60484.78;5030367;28;20543;-68
2022/04/20 11:43:36;;;;;;;6.82;3.05;;;;;;;-145.18;100.00;60484.78;5030899;28;20362;-69